Ottine, TX (78658)

2:03 PM CDT on May 06, 2015 (GMT -0500)
Gonzales Roger M. Dreyer Memo | | Change Station
CLOSE
Current Station
Airport
Location: Gonzales Roger M. Dreyer Memo,
Elevation: 351 ft
Nearby Weather Stations

Elev 351 ft 29.53 °N, 97.46 °W | Updated 8 minutes ago

Partly Cloudy
Partly Cloudy
84 °F
Feels Like 88 °F
N
13
Wind Variable Wind from SE
Gusts 18 mph

Today
High -- | Low -- °F
--% Chance of Precip.
Yesterday
High -- | Low -- °F
Precip. -- in
6:44 AM 8:10 PM
Waning Gibbous, 93% visible
Pressure 29.90 in
Visibility 10.0 miles
Clouds Scattered Clouds 3600 ft
Mostly Cloudy 4300 ft
Mostly Cloudy 6000 ft
Heat Index 88 °F
Dew Point 70 °F
Humidity 63%
Rainfall 0.00 in
Snow Depth Not available.
UV 6 out of 12
Pollen 4.20 out of 12
Air Quality Not available.
Flu Activity Sporadic
METAR KT20 061855Z AUTO 14011G16KT 10SM SCT036 BKN043 BKN060 29/21 A2990 RMK AO2 T02890213

More Conditions Fewer Conditions

Pressure 29.90 in
Visibility 10.0 miles
Clouds Scattered Clouds 3600 ft
Mostly Cloudy 4300 ft
Mostly Cloudy 6000 ft
Heat Index 88 °F
Dew Point 70 °F
Humidity 63%
Rainfall 0.00 in
Snow Depth Not available.
UV 6 out of 12
Pollen 4.20 out of 12
Air Quality Not available.
Flu Activity Sporadic
METAR KT20 061855Z AUTO 14011G16KT 10SM SCT036 BKN043 BKN060 29/21 A2990 RMK AO2 T02890213

More Conditions Fewer Conditions

Nowcast | as of 2:01 PM CDT on May 6, 2015

Through 4 PM...isolated showers will move north across south central Texas and the eastern Hill Country. Rainfall amounts up to one tenth inch are possible.

×

10-Day Weather Forecast

Almanac

Astronomy

May. 06, 2015 Rise Set
Actual Time
Civil Twilight
Nautical Twilight
Astronomical Twilight
Moon
Length of Visible Light
Length of Day
Tomorrow will be .
, % of the Moon is Illuminated

Today's Extremes

State Highs State Lows

Community

WunderPhotos

Upload Photos

1,818,993 photos uploaded!

WunderBlogs® & News

Nearby

Air Quality

  Air Quality AQ Index Pollutant
Not available.

Snow Depth

Station Depth Elevation

Earthquake Activity

City Distance Mag. Time & Date
Minimum magnitude displayed is 2.5.

Coastal Water Temperatures

Place Temperature

Stations

Nearby Weather Stations

Station Location Temp. Windchill Dew Point Humidity Wind Precip. Elev Updated Type